Time;durP1;ratioP1;P1;durP2;ratioP2;P2;SDS_P1;SDS_P2;PMS_P1;PMS_P2;Temp;Humidity;BMP_temperature;BMP_pressure;BME280_temperature;BME280_humidity;BME280_pressure;Samples;Min_cycle;Max_cycle;Signal;HPM_P1;HPM_P2
2021/12/24 00:00:49;;;;;;;23.02;11.65;;;;;;;-3.55;56.82;101111.16;1653752;85;25741;-62
2021/12/24 00:03:16;;;;;;;24.20;11.03;;;;;;;-3.54;56.96;101115.05;1643019;86;28191;-60
2021/12/24 00:05:44;;;;;;;23.40;12.25;;;;;;;-3.48;57.13;101108.34;1651143;85;25773;-61
2021/12/24 00:08:11;;;;;;;25.45;12.25;;;;;;;-3.43;57.08;101098.14;1646904;86;25907;-61
2021/12/24 00:10:40;;;;;;;21.87;11.35;;;;;;;-3.35;57.16;101093.55;1656067;86;26065;-61
2021/12/24 00:13:14;;;;;;;34.50;11.60;;;;;;;-3.34;56.71;101081.69;1655083;85;25816;-62
2021/12/24 00:37:33;;;;;;;25.00;11.63;;;;;;;-3.28;56.78;101044.27;1593781;88;26178;-61
2021/12/24 00:40:12;;;;;;;25.52;11.90;;;;;;;-3.31;57.14;101034.70;1593977;88;25917;-61
2021/12/24 00:42:32;;;;;;;22.30;12.00;;;;;;;-3.31;57.14;101037.33;1582416;89;28255;-62
2021/12/24 00:44:59;;;;;;;27.75;12.25;;;;;;;-3.26;57.18;101021.42;1593786;88;25964;-62
2021/12/24 00:47:27;;;;;;;26.02;13.43;;;;;;;-3.22;57.10;101012.52;1584584;88;25907;-62
2021/12/24 00:49:54;;;;;;;20.97;11.30;;;;;;;-3.21;57.02;101008.55;1590232;89;26289;-61
2021/12/24 00:52:45;;;;;;;20.77;11.33;;;;;;;-3.21;56.90;100993.20;1589097;89;25821;-62
2021/12/24 00:55:09;;;;;;;22.55;11.73;;;;;;;-3.23;57.04;100991.94;1616826;86;27560;-61
2021/12/24 00:57:41;;;;;;;27.65;12.55;;;;;;;-3.23;57.14;100987.98;1646258;85;25734;-62
2021/12/24 01:00:14;;;;;;;28.87;13.78;;;;;;;-3.22;57.20;100987.52;1644139;86;25756;-62
2021/12/24 01:02:47;;;;;;;27.87;12.23;;;;;;;-3.23;57.01;100981.41;1649435;86;26743;-62
2021/12/24 01:05:16;;;;;;;25.02;12.10;;;;;;;-3.16;57.09;100974.22;1649708;86;25742;-62
2021/12/24 01:07:45;;;;;;;22.30;11.53;;;;;;;-3.17;57.06;100972.02;1649224;85;27509;-61
2021/12/24 01:10:15;;;;;;;21.02;11.57;;;;;;;-3.14;57.11;100957.94;1653946;85;25848;-62
2021/12/24 01:12:42;;;;;;;22.48;11.08;;;;;;;-3.08;57.06;100946.34;1645823;85;25883;-61
2021/12/24 01:15:13;;;;;;;27.10;12.33;;;;;;;-3.05;57.05;100930.47;1632190;84;26195;-62
2021/12/24 01:17:51;;;;;;;28.42;11.60;;;;;;;-3.05;57.25;100929.16;1637357;86;25872;-63
2021/12/24 01:20:27;;;;;;;19.98;10.85;;;;;;;-3.06;57.42;100931.38;1646465;86;27377;-63
2021/12/24 01:39:15;;;;;;;25.62;11.75;;;;;;;-2.79;57.63;100879.67;1646897;86;25761;-63
2021/12/24 01:44:27;;;;;;;23.98;12.63;;;;;;;-2.74;57.20;100862.41;1647934;86;25885;-62
2021/12/24 01:47:03;;;;;;;23.57;11.93;;;;;;;-2.68;57.40;100857.79;1644615;86;27558;-62
2021/12/24 01:49:34;;;;;;;20.68;12.00;;;;;;;-2.71;57.30;100851.33;1645527;86;26208;-62
2021/12/24 01:52:04;;;;;;;28.35;13.88;;;;;;;-2.70;57.30;100847.78;1651182;86;25812;-63
2021/12/24 01:54:34;;;;;;;33.10;13.25;;;;;;;-2.65;57.23;100838.86;1644680;85;26103;-62
2021/12/24 01:57:03;;;;;;;27.50;13.88;;;;;;;-2.62;57.17;100838.77;1655240;85;25702;-63
2021/12/24 01:59:33;;;;;;;27.42;13.95;;;;;;;-2.57;57.30;100829.81;1645307;86;27508;-62
2021/12/24 02:02:00;;;;;;;26.33;12.70;;;;;;;-2.56;56.95;100828.02;1647612;86;25872;-61
2021/12/24 02:04:28;;;;;;;28.98;13.32;;;;;;;-2.54;56.99;100821.78;1644667;85;25838;-62
2021/12/24 02:06:55;;;;;;;22.50;12.30;;;;;;;-2.56;56.88;100810.90;1651186;86;26490;-62
2021/12/24 02:09:23;;;;;;;22.82;12.13;;;;;;;-2.58;56.70;100798.23;1669388;84;25761;-62
2021/12/24 02:11:52;;;;;;;24.55;11.48;;;;;;;-2.70;56.52;100787.22;1648680;84;27536;-62
2021/12/24 02:14:23;;;;;;;22.52;11.95;;;;;;;-2.76;56.70;100793.13;1665038;84;25494;-62
2021/12/24 02:30:29;;;;;;;24.27;12.78;;;;;;;-2.78;57.60;100762.03;1645936;85;25777;-62
2021/12/24 02:32:57;;;;;;;23.30;11.83;;;;;;;-2.71;57.68;100743.36;1650004;85;26096;-62
2021/12/24 02:35:24;;;;;;;23.32;11.25;;;;;;;-2.62;57.79;100734.73;1650705;85;25868;-61
2021/12/24 02:37:51;;;;;;;25.17;14.25;;;;;;;-2.63;57.62;100729.91;1649480;86;28139;-61
2021/12/24 02:40:19;;;;;;;22.48;12.80;;;;;;;-2.61;57.50;100725.92;1650892;86;25860;-62
2021/12/24 02:42:52;;;;;;;28.55;15.35;;;;;;;-2.62;57.57;100716.30;1653583;86;25833;-61
2021/12/24 02:45:25;;;;;;;25.32;14.23;;;;;;;-2.69;57.62;100705.11;1653895;85;26727;-62
2021/12/24 02:56:10;;;;;;;27.35;14.63;;;;;;;-2.85;57.59;100693.80;1647032;85;25755;-62
2021/12/24 02:58:45;;;;;;;29.67;15.30;;;;;;;-2.92;57.89;100687.46;1675509;84;26155;-63
2021/12/24 03:01:14;;;;;;;;;;;;;;;-2.98;58.14;100678.00;1667465;84;25854;-62
2021/12/24 03:03:48;;;;;;;28.75;14.53;;;;;;;-2.98;58.26;100670.10;1704792;83;27566;-62
2021/12/24 03:06:16;;;;;;;25.37;13.72;;;;;;;-2.92;58.38;100661.14;1653546;85;25832;-63
2021/12/24 03:08:46;;;;;;;31.25;14.83;;;;;;;-2.96;58.47;100663.48;1668518;84;25795;-63
2021/12/24 03:11:15;;;;;;;36.05;14.55;;;;;;;-3.01;58.58;100653.97;1646188;86;26105;-63
2021/12/24 03:13:43;;;;;;;36.45;15.90;;;;;;;-3.10;58.50;100655.59;1645723;84;25716;-62
2021/12/24 03:16:14;;;;;;;28.90;14.70;;;;;;;-3.08;58.64;100660.79;1646552;85;27489;-63
2021/12/24 03:18:43;;;;;;;36.25;15.43;;;;;;;-3.04;58.87;100655.84;1647628;86;25774;-62
2021/12/24 03:21:15;;;;;;;27.10;14.73;;;;;;;-3.00;58.62;100652.17;1653771;85;25851;-63
2021/12/24 03:23:44;;;;;;;30.82;15.93;;;;;;;-2.92;58.64;100637.01;1645248;84;26122;-62
2021/12/24 03:26:14;;;;;;;32.10;13.83;;;;;;;-2.90;58.35;100632.52;1646765;85;25747;-63
2021/12/24 03:28:43;;;;;;;30.88;17.05;;;;;;;-2.88;58.33;100614.91;1651838;85;27474;-62
2021/12/24 03:31:12;;;;;;;40.90;15.93;;;;;;;-2.84;58.20;100614.34;1645745;85;25799;-62
2021/12/24 03:33:39;;;;;;;29.10;15.35;;;;;;;-2.81;58.13;100615.56;1650972;86;25752;-63
2021/12/24 03:36:09;;;;;;;32.48;15.43;;;;;;;-2.78;58.12;100621.17;1646589;86;26235;-62
2021/12/24 03:38:38;;;;;;;31.20;14.93;;;;;;;-2.74;57.99;100604.36;1646085;86;25806;-63
2021/12/24 03:41:05;;;;;;;33.78;15.38;;;;;;;-2.77;58.07;100603.14;1646796;86;28444;-62
2021/12/24 03:43:33;;;;;;;25.60;13.83;;;;;;;-2.85;58.08;100596.83;1652695;85;25784;-61
2021/12/24 03:46:07;;;;;;;30.25;14.75;;;;;;;-2.89;58.18;100600.03;1656561;84;25837;-62
2021/12/24 03:56:24;;;;;;;31.10;15.53;;;;;;;-2.70;58.18;100589.72;1621290;87;25865;-62
2021/12/24 03:58:54;;;;;;;33.35;15.40;;;;;;;-2.67;58.05;100565.87;1619352;87;25848;-62
2021/12/24 04:01:28;;;;;;;33.33;16.45;;;;;;;-2.66;57.99;100566.75;1626842;85;28304;-62
2021/12/24 04:04:12;;;;;;;32.20;15.80;;;;;;;-2.65;58.06;100573.75;1590876;89;25839;-63
2021/12/24 04:06:52;;;;;;;29.25;16.05;;;;;;;-2.68;58.02;100573.38;1647404;85;27518;-62
2021/12/24 04:09:26;;;;;;;33.42;17.67;;;;;;;-2.67;57.89;100564.56;1609393;85;25843;-62
2021/12/24 04:11:56;;;;;;;34.18;16.52;;;;;;;-2.64;57.96;100557.00;1649365;86;25770;-62
2021/12/24 04:14:24;;;;;;;28.32;15.32;;;;;;;-2.59;58.06;100552.44;1649243;84;26098;-63
2021/12/24 04:16:51;;;;;;;35.45;16.17;;;;;;;-2.57;57.90;100546.66;1652060;85;25796;-62
2021/12/24 04:24:56;;;;;;;31.07;16.45;;;;;;;-2.49;57.85;100543.72;1653784;85;25856;-62
2021/12/24 04:27:27;;;;;;;24.98;15.23;;;;;;;-2.49;58.05;100540.23;1650149;86;26086;-63
2021/12/24 04:30:09;;;;;;;32.78;16.07;;;;;;;-2.46;57.97;100536.14;1643875;86;25959;-62
2021/12/24 04:35:33;;;;;;;31.55;16.25;;;;;;;-2.44;57.78;100536.95;1652846;84;25734;-63
2021/12/24 04:51:28;;;;;;;37.75;19.27;;;;;;;-2.18;57.73;100507.41;1647355;85;26247;-62
2021/12/24 05:02:50;;;;;;;31.97;16.97;;;;;;;-2.25;57.73;100477.36;1636670;86;25841;-63
2021/12/24 05:05:24;;;;;;;32.90;15.75;;;;;;;-2.30;57.85;100477.14;1642319;85;25814;-62
2021/12/24 05:10:28;;;;;;;38.00;17.55;;;;;;;-2.31;57.95;100462.24;1631432;87;25910;-63
2021/12/24 05:12:51;;;;;;;33.53;18.50;;;;;;;-2.37;58.09;100460.70;1666566;85;27509;-63
2021/12/24 05:15:20;;;;;;;37.65;19.23;;;;;;;-2.40;58.16;100463.48;1662910;84;25855;-63
2021/12/24 05:18:17;;;;;;;32.93;18.12;;;;;;;-2.43;58.28;100459.20;1643197;85;25841;-61
2021/12/24 05:23:42;;;;;;;43.63;19.98;;;;;;;-2.40;58.52;100438.45;1660470;84;25828;-62
2021/12/24 05:26:14;;;;;;;36.65;18.30;;;;;;;-2.43;58.99;100435.50;1647901;85;27474;-62
2021/12/24 05:28:42;;;;;;;35.80;19.15;;;;;;;-2.38;58.80;100435.31;1644817;84;25844;-61
2021/12/24 05:31:09;;;;;;;33.53;17.90;;;;;;;-2.41;58.75;100427.52;1649611;86;25987;-61
2021/12/24 05:33:38;;;;;;;40.28;18.37;;;;;;;-2.44;58.97;100427.63;1643815;86;26179;-62
2021/12/24 05:36:07;;;;;;;36.35;18.82;;;;;;;-2.44;59.19;100432.46;1644595;86;25508;-61
2021/12/24 05:38:35;;;;;;;36.70;18.50;;;;;;;-2.41;59.12;100424.88;1648314;86;28628;-62
2021/12/24 05:41:04;;;;;;;36.95;19.45;;;;;;;-2.36;59.03;100426.86;1644345;85;25951;-61
2021/12/24 05:43:31;;;;;;;40.92;19.00;;;;;;;-2.34;59.23;100418.44;1643162;86;25705;-61
2021/12/24 05:45:58;;;;;;;73.72;37.35;;;;;;;-2.32;59.34;100423.20;1651767;85;26106;-61
2021/12/24 05:48:29;;;;;;;49.23;23.67;;;;;;;-2.30;59.37;100413.45;1645768;86;25851;-62
2021/12/24 05:50:58;;;;;;;43.58;20.97;;;;;;;-2.24;59.46;100414.52;1645272;85;27593;-61
2021/12/24 05:53:43;;;;;;;37.23;19.87;;;;;;;-2.20;59.39;100412.13;1600184;87;25917;-61
2021/12/24 05:56:13;;;;;;;39.50;19.02;;;;;;;-2.18;59.22;100402.87;1637641;86;25757;-62
2021/12/24 05:58:42;;;;;;;33.50;18.37;;;;;;;-2.21;59.27;100392.00;1647790;86;28392;-62
2021/12/24 06:01:09;;;;;;;35.45;18.90;;;;;;;-2.28;59.54;100405.00;1643439;86;25877;-62
2021/12/24 06:03:48;;;;;;;39.53;19.35;;;;;;;-2.29;59.69;100401.12;1651813;85;27497;-61
2021/12/24 06:06:15;;;;;;;34.08;18.77;;;;;;;-2.27;60.02;100395.34;1651361;85;25910;-61
2021/12/24 06:08:41;;;;;;;48.45;20.25;;;;;;;-2.31;60.19;100391.10;1646254;85;25781;-62
2021/12/24 06:11:11;;;;;;;34.78;19.92;;;;;;;-2.35;60.73;100389.06;1655858;85;26110;-62
2021/12/24 06:13:43;;;;;;;37.48;20.20;;;;;;;-2.38;60.73;100386.09;1657959;85;25738;-61
2021/12/24 06:16:10;;;;;;;39.58;19.85;;;;;;;-2.40;61.48;100387.09;1649755;86;27500;-61
2021/12/24 06:18:41;;;;;;;40.73;19.85;;;;;;;-2.48;61.79;100382.12;1629529;87;25939;-61
2021/12/24 06:21:10;;;;;;;37.63;21.07;;;;;;;-2.48;62.16;100379.96;1621006;86;25798;-61
2021/12/24 06:23:41;;;;;;;41.68;20.25;;;;;;;-2.50;62.63;100369.46;1633507;86;26817;-62
2021/12/24 06:26:08;;;;;;;36.20;20.08;;;;;;;-2.52;63.50;100368.70;1634481;87;25869;-62
2021/12/24 06:28:37;;;;;;;38.80;21.90;;;;;;;-2.54;63.26;100370.05;1668208;84;27567;-62
2021/12/24 06:31:05;;;;;;;34.30;20.10;;;;;;;-2.49;63.39;100366.39;1661312;84;25782;-61
2021/12/24 06:33:33;;;;;;;39.15;21.50;;;;;;;-2.46;63.71;100355.70;1638279;85;25801;-62
2021/12/24 06:36:01;;;;;;;44.38;24.27;;;;;;;-2.49;63.95;100351.91;1645730;85;26096;-61
2021/12/24 06:38:28;;;;;;;38.53;23.35;;;;;;;-2.51;64.74;100346.70;1645819;85;25742;-61
2021/12/24 06:40:55;;;;;;;44.53;24.15;;;;;;;-2.50;64.44;100342.28;1654781;85;28158;-61
2021/12/24 06:43:23;;;;;;;40.43;22.52;;;;;;;-2.49;64.57;100344.84;1662975;85;25677;-61
2021/12/24 06:45:51;;;;;;;44.05;22.62;;;;;;;-2.47;64.68;100344.33;1659742;85;25726;-62
2021/12/24 06:48:18;;;;;;;44.40;24.90;;;;;;;-2.43;64.72;100346.38;1657310;85;27314;-61
2021/12/24 06:50:46;;;;;;;70.97;33.15;;;;;;;-2.43;64.38;100329.25;1664157;84;25811;-62
2021/12/24 06:53:13;;;;;;;56.68;28.45;;;;;;;-2.30;64.73;100327.83;1649914;84;27503;-62
2021/12/24 06:55:43;;;;;;;54.95;29.15;;;;;;;-2.27;64.92;100312.34;1650696;85;25822;-62
2021/12/24 06:58:11;;;;;;;52.93;27.87;;;;;;;-2.22;64.95;100314.30;1646082;85;25849;-62
2021/12/24 07:00:39;;;;;;;54.03;27.80;;;;;;;-2.10;64.71;100308.96;1650146;86;27019;-62
2021/12/24 07:03:08;;;;;;;43.33;24.15;;;;;;;-2.01;65.03;100301.97;1646972;86;26522;-62
2021/12/24 07:05:35;;;;;;;44.63;24.02;;;;;;;-1.93;65.22;100291.09;1664810;84;27337;-62
2021/12/24 07:08:02;;;;;;;45.08;24.05;;;;;;;-1.92;64.68;100277.84;1630966;87;25815;-61
2021/12/24 07:10:29;;;;;;;46.63;24.77;;;;;;;-1.89;64.68;100284.78;1633315;86;25949;-63
2021/12/24 07:13:00;;;;;;;68.52;25.50;;;;;;;-1.86;64.87;100305.72;1629107;86;26777;-63
2021/12/24 07:15:32;;;;;;;49.73;24.92;;;;;;;-1.78;64.91;100279.02;1627975;86;25819;-64
2021/12/24 07:18:01;;;;;;;42.90;24.32;;;;;;;-1.78;64.75;100286.92;1645183;86;27524;-63
2021/12/24 07:20:31;;;;;;;67.65;26.95;;;;;;;-1.72;64.53;100273.92;1653517;84;25776;-63
2021/12/24 07:22:58;;;;;;;48.50;24.82;;;;;;;-1.64;64.64;100277.06;1656341;85;25827;-63
2021/12/24 07:25:25;;;;;;;50.23;26.80;;;;;;;-1.55;64.71;100259.95;1650113;86;26785;-63
2021/12/24 07:27:57;;;;;;;51.95;25.62;;;;;;;-1.61;64.56;100255.36;1645985;86;26476;-63
2021/12/24 07:30:26;;;;;;;43.85;24.65;;;;;;;-1.60;64.60;100253.12;1654888;84;28270;-62
2021/12/24 07:32:58;;;;;;;51.00;27.30;;;;;;;-1.53;64.65;100240.50;1654234;85;25777;-64
2021/12/24 07:35:25;;;;;;;55.83;29.42;;;;;;;-1.50;64.67;100232.42;1645679;86;25814;-64
2021/12/24 07:37:52;;;;;;;68.67;38.95;;;;;;;-1.53;64.58;100223.36;1649377;86;26048;-63
2021/12/24 07:40:25;;;;;;;66.55;35.33;;;;;;;-1.45;64.62;100224.30;1642329;86;25540;-63
2021/12/24 07:42:50;;;;;;;68.20;37.75;;;;;;;-1.34;64.72;100213.22;1652428;85;27731;-63
2021/12/24 07:45:18;;;;;;;65.75;33.80;;;;;;;-1.33;64.41;100199.97;1651527;84;25859;-62
2021/12/24 07:47:55;;;;;;;60.88;32.17;;;;;;;-1.28;64.68;100193.99;1649001;85;25804;-64
2021/12/24 07:52:59;;;;;;;57.38;32.20;;;;;;;-1.17;64.58;100187.34;1653190;85;25729;-62
2021/12/24 07:55:26;;;;;;;56.37;29.80;;;;;;;-1.15;64.59;100189.45;1655411;84;27505;-62
2021/12/24 07:57:53;;;;;;;58.83;30.00;;;;;;;-1.11;64.64;100187.90;1649645;84;25806;-61
2021/12/24 08:00:27;;;;;;;65.95;29.65;;;;;;;-1.07;64.51;100183.31;1652438;84;25788;-62
2021/12/24 08:02:53;;;;;;;57.58;30.88;;;;;;;-0.97;64.46;100179.29;1624635;86;26142;-62
2021/12/24 08:05:23;;;;;;;62.85;33.75;;;;;;;-0.91;64.34;100177.26;1636148;85;25751;-62
2021/12/24 08:07:52;;;;;;;64.92;34.00;;;;;;;-0.81;64.41;100170.59;1646621;86;27492;-62
2021/12/24 08:10:21;;;;;;;59.80;33.55;;;;;;;-0.74;64.29;100161.89;1641393;86;25843;-62
2021/12/24 08:12:48;;;;;;;61.45;30.00;;;;;;;-0.70;64.11;100155.05;1645226;85;25804;-62
2021/12/24 08:15:17;;;;;;;62.83;34.48;;;;;;;-0.67;64.12;100161.95;1658222;85;26115;-62
2021/12/24 08:17:45;;;;;;;60.15;29.42;;;;;;;-0.59;64.17;100164.21;1649473;85;25865;-61
2021/12/24 08:20:14;;;;;;;54.83;29.07;;;;;;;-0.46;63.95;100167.91;1642544;85;28034;-62
2021/12/24 08:22:42;;;;;;;55.50;30.23;;;;;;;-0.47;63.68;100149.02;1643665;86;25840;-64
2021/12/24 08:25:11;;;;;;;63.83;33.05;;;;;;;-0.45;63.81;100148.48;1649496;84;25534;-62
2021/12/24 08:27:39;;;;;;;65.05;30.12;;;;;;;-0.36;63.85;100151.95;1645117;84;26728;-65
2021/12/24 08:30:09;;;;;;;63.83;32.83;;;;;;;-0.27;63.63;100143.14;1656464;85;26310;-64
2021/12/24 08:32:40;;;;;;;60.50;30.32;;;;;;;-0.19;63.73;100135.20;1644296;84;27580;-62
2021/12/24 08:35:15;;;;;;;52.98;30.30;;;;;;;-0.13;63.38;100130.50;1637600;86;25852;-62
2021/12/24 08:37:42;;;;;;;58.48;31.95;;;;;;;-0.12;63.31;100130.89;1637066;84;25734;-62
2021/12/24 08:40:11;;;;;;;60.45;30.45;;;;;;;-0.03;63.46;100131.23;1653013;84;26091;-63
2021/12/24 08:42:41;;;;;;;64.07;32.38;;;;;;;0.07;63.28;100116.18;1621322;86;25858;-63
2021/12/24 08:45:13;;;;;;;60.17;32.13;;;;;;;0.11;63.09;100114.61;1624751;85;28728;-64
2021/12/24 08:47:41;;;;;;;61.68;32.93;;;;;;;0.19;63.04;100112.86;1618526;86;26043;-63
2021/12/24 08:50:11;;;;;;;62.17;33.30;;;;;;;0.26;63.07;100108.92;1628896;86;25741;-63
2021/12/24 08:52:38;;;;;;;63.78;32.88;;;;;;;0.32;62.97;100109.05;1658653;84;26146;-63
2021/12/24 08:55:06;;;;;;;61.83;32.42;;;;;;;0.45;62.98;100100.78;1659383;84;25811;-62
2021/12/24 08:57:33;;;;;;;60.23;31.80;;;;;;;0.63;62.69;100094.05;1631540;86;28164;-63
2021/12/24 09:00:00;;;;;;;59.25;31.73;;;;;;;0.88;62.41;100085.53;1629967;86;25870;-62
2021/12/24 09:02:28;;;;;;;61.58;31.23;;;;;;;1.17;62.12;100073.66;1664455;84;25900;-63
2021/12/24 09:04:57;;;;;;;58.25;31.27;;;;;;;1.22;61.52;100074.22;1663047;84;26097;-63
2021/12/24 09:07:24;;;;;;;52.40;28.75;;;;;;;1.23;61.41;100067.14;1645913;85;26436;-63
2021/12/24 09:09:53;;;;;;;59.85;31.37;;;;;;;1.30;61.39;100062.33;1651280;85;27496;-63
2021/12/24 09:12:21;;;;;;;54.98;31.35;;;;;;;1.43;61.21;100054.47;1674848;84;25825;-62
2021/12/24 09:14:49;;;;;;;53.75;30.97;;;;;;;1.47;61.00;100055.51;1660982;84;25707;-61
2021/12/24 09:17:16;;;;;;;72.30;36.88;;;;;;;1.52;60.99;100058.71;1636407;85;26662;-63
2021/12/24 09:19:50;;;;;;;64.65;34.83;;;;;;;1.60;60.73;100048.09;1655955;85;25517;-63
2021/12/24 09:22:18;;;;;;;66.65;36.93;;;;;;;1.62;60.26;100044.88;1628407;86;28219;-64
2021/12/24 09:24:50;;;;;;;68.67;35.45;;;;;;;1.92;60.20;100035.94;1638499;85;25953;-64
2021/12/24 09:27:17;;;;;;;59.10;33.10;;;;;;;2.30;59.58;100024.14;1648256;85;25872;-63
2021/12/24 09:29:44;;;;;;;56.48;32.67;;;;;;;2.52;59.40;100019.20;1631323;85;26057;-63
2021/12/24 09:32:13;;;;;;;61.95;34.45;;;;;;;2.95;58.24;100006.97;1661772;84;25793;-62
2021/12/24 09:34:40;;;;;;;56.40;32.38;;;;;;;3.35;57.63;100002.00;1662821;83;28168;-62
2021/12/24 09:37:09;;;;;;;64.65;33.90;;;;;;;3.65;57.06;99990.98;1639211;86;25898;-63
2021/12/24 09:39:38;;;;;;;49.55;29.82;;;;;;;3.90;57.09;99986.06;1649283;85;25791;-63
2021/12/24 09:42:10;;;;;;;44.23;26.02;;;;;;;4.29;57.00;99971.22;1616521;87;26128;-61
2021/12/24 09:44:39;;;;;;;46.55;26.65;;;;;;;4.71;55.81;99969.41;1638759;86;25741;-62
2021/12/24 09:47:07;;;;;;;59.33;29.25;;;;;;;4.95;54.99;99969.33;1669822;84;28244;-60
2021/12/24 09:49:35;;;;;;;46.08;29.25;;;;;;;4.91;54.61;99959.02;1681437;84;25479;-61
2021/12/24 09:52:04;;;;;;;51.53;31.77;;;;;;;4.87;53.60;99961.08;1670388;84;25792;-61
2021/12/24 09:54:32;;;;;;;54.23;29.77;;;;;;;4.80;53.63;99962.03;1638351;85;27797;-62
2021/12/24 09:57:01;;;;;;;58.17;33.58;;;;;;;4.70;53.11;99947.26;1650229;85;25906;-62
2021/12/24 09:59:28;;;;;;;54.25;30.92;;;;;;;4.71;53.75;99948.09;1655622;85;28195;-61
2021/12/24 10:02:01;;;;;;;56.25;30.30;;;;;;;4.79;53.38;99951.50;1646020;85;25856;-62
2021/12/24 10:04:32;;;;;;;52.03;30.32;;;;;;;4.85;53.39;99941.69;1666747;84;25706;-61
2021/12/24 10:07:06;;;;;;;69.58;35.98;;;;;;;4.74;52.40;99944.34;1670582;84;26095;-61
2021/12/24 10:09:38;;;;;;;52.78;30.68;;;;;;;4.67;52.79;99944.82;1687274;84;25982;-61
2021/12/24 10:12:09;;;;;;;54.50;31.10;;;;;;;4.76;52.74;99950.40;1663064;84;27685;-61
2021/12/24 10:14:41;;;;;;;54.13;29.10;;;;;;;4.86;52.13;99938.90;1681793;84;25512;-61
2021/12/24 10:17:18;;;;;;;51.77;29.65;;;;;;;5.09;52.53;99928.26;1663180;84;25441;-61
2021/12/24 10:19:57;;;;;;;54.08;29.87;;;;;;;5.29;52.17;99923.99;1677419;84;26740;-60
2021/12/24 10:22:25;;;;;;;49.42;30.05;;;;;;;5.58;51.44;99920.80;1673820;84;25812;-61
2021/12/24 10:25:06;;;;;;;43.45;27.32;;;;;;;6.17;49.83;99907.15;1660980;84;27434;-61
2021/12/24 10:27:35;;;;;;;48.60;27.75;;;;;;;6.72;49.36;99907.76;1663021;84;26252;-61
2021/12/24 10:30:22;;;;;;;44.48;27.10;;;;;;;7.59;50.19;99904.69;1670423;84;25745;-61
2021/12/24 10:32:55;;;;;;;46.05;29.35;;;;;;;8.14;50.20;99905.01;1673716;84;28355;-62
2021/12/24 10:35:27;;;;;;;40.25;25.48;;;;;;;7.88;47.28;99906.55;1679843;84;26433;-61
2021/12/24 10:38:25;;;;;;;46.58;28.40;;;;;;;7.65;47.83;99913.02;1676418;84;27477;-62
2021/12/24 10:41:01;;;;;;;51.58;27.80;;;;;;;7.41;47.79;99903.19;1671992;84;25904;-61
2021/12/24 10:43:39;;;;;;;45.10;25.80;;;;;;;7.21;47.42;99889.75;1661049;85;26016;-62
2021/12/24 10:46:12;;;;;;;39.63;23.57;;;;;;;7.06;47.67;99882.59;1661710;84;26205;-62
2021/12/24 10:48:48;;;;;;;39.50;25.30;;;;;;;6.94;47.56;99872.98;1679978;84;25824;-62
2021/12/24 10:51:19;;;;;;;40.52;24.67;;;;;;;6.74;47.94;99870.23;1670730;84;27508;-63
2021/12/24 10:54:04;;;;;;;43.25;24.07;;;;;;;6.64;47.93;99855.97;1660196;84;26064;-63
2021/12/24 10:56:33;;;;;;;45.17;26.02;;;;;;;6.59;47.92;99856.36;1689949;84;25870;-61
2021/12/24 10:59:01;;;;;;;56.40;26.02;;;;;;;6.55;47.90;99858.46;1676286;85;26115;-61
2021/12/24 11:01:29;;;;;;;42.35;24.50;;;;;;;6.66;47.62;99858.86;1677838;85;25782;-61
2021/12/24 11:03:55;;;;;;;46.50;25.70;;;;;;;6.65;47.58;99846.97;1677723;85;28234;-62
2021/12/24 11:06:30;;;;;;;47.65;25.85;;;;;;;6.54;47.66;99842.56;1671916;84;25913;-61
2021/12/24 11:09:03;;;;;;;48.58;27.77;;;;;;;6.49;47.96;99842.10;1663443;85;25836;-61
2021/12/24 11:11:38;;;;;;;53.55;25.80;;;;;;;6.41;47.66;99834.27;1659845;84;26107;-61
2021/12/24 11:14:13;;;;;;;53.60;23.55;;;;;;;6.35;48.12;99820.58;1634412;85;26225;-62
2021/12/24 11:16:45;;;;;;;54.90;23.83;;;;;;;6.34;47.30;99817.55;1653645;86;27491;-62
2021/12/24 11:19:13;;;;;;;49.00;24.12;;;;;;;6.49;47.26;99818.05;1617029;86;26505;-61
2021/12/24 11:21:40;;;;;;;40.98;24.45;;;;;;;6.86;47.80;99838.39;1615879;86;26000;-62
2021/12/24 11:24:12;;;;;;;47.23;26.82;;;;;;;7.33;47.24;99827.13;1632870;85;26741;-62
2021/12/24 11:26:50;;;;;;;59.33;32.53;;;;;;;7.67;46.83;99834.76;1638530;85;25846;-62
2021/12/24 11:29:08;;;;;;;48.85;26.37;;;;;;;7.66;46.02;99821.02;1655128;85;27506;-63
2021/12/24 11:31:35;;;;;;;45.58;26.70;;;;;;;7.52;46.23;99818.77;1638459;85;25850;-63
2021/12/24 11:34:08;;;;;;;42.53;25.55;;;;;;;7.46;46.04;99817.97;1646039;84;25803;-61
2021/12/24 11:36:37;;;;;;;44.13;22.75;;;;;;;7.29;45.91;99828.38;1626690;85;26807;-62
2021/12/24 11:39:08;;;;;;;38.78;22.27;;;;;;;7.18;45.97;99824.00;1653542;85;25770;-63
2021/12/24 11:41:37;;;;;;;38.50;21.73;;;;;;;7.04;45.35;99821.70;1664379;85;27542;-62
2021/12/24 11:44:07;;;;;;;40.38;21.65;;;;;;;6.96;45.60;99818.86;1650079;85;25732;-61
2021/12/24 11:46:41;;;;;;;48.20;21.85;;;;;;;6.86;45.75;99814.33;1638165;85;25777;-62
2021/12/24 11:49:08;;;;;;;41.92;21.97;;;;;;;6.79;46.35;99827.05;1664616;84;26186;-62
2021/12/24 11:51:40;;;;;;;35.50;20.55;;;;;;;6.67;46.35;99799.08;1670782;85;25818;-62
2021/12/24 11:54:07;;;;;;;47.58;24.47;;;;;;;6.49;46.31;99802.89;1654297;85;27731;-62
2021/12/24 11:56:48;;;;;;;55.65;28.73;;;;;;;6.37;46.63;99803.44;1635222;84;25801;-63
2021/12/24 11:59:15;;;;;;;50.17;26.40;;;;;;;6.21;47.01;99809.75;1662760;84;25924;-63
2021/12/24 12:01:44;;;;;;;34.20;21.65;;;;;;;6.10;47.35;99806.17;1680137;83;26098;-62
2021/12/24 12:04:20;;;;;;;40.90;22.55;;;;;;;6.00;47.09;99800.42;1669926;84;25804;-61
2021/12/24 12:06:47;;;;;;;45.25;23.25;;;;;;;5.88;47.57;99810.29;1648520;84;27553;-62
2021/12/24 12:09:17;;;;;;;49.73;27.02;;;;;;;5.76;47.71;99802.33;1633492;87;25833;-63
2021/12/24 12:11:48;;;;;;;54.15;30.57;;;;;;;5.61;47.78;99812.97;1683603;84;25855;-62
2021/12/24 12:14:25;;;;;;;57.27;32.90;;;;;;;5.41;48.03;99806.12;1653039;85;25749;-62
2021/12/24 12:16:57;;;;;;;53.28;29.98;;;;;;;5.27;48.50;99803.76;1662327;84;27300;-62
2021/12/24 12:22:32;;;;;;;48.28;26.93;;;;;;;5.07;49.03;99811.55;1662820;84;26568;-62
2021/12/24 12:24:58;;;;;;;;;;;;;;;5.02;49.66;99805.73;1656228;85;25756;-61
2021/12/24 12:27:39;;;;;;;66.75;30.35;;;;;;;4.96;50.04;99808.44;1678855;84;28271;-61
2021/12/24 12:30:43;;;;;;;57.43;33.13;;;;;;;4.90;50.12;99808.91;1644309;84;25995;-61
2021/12/24 12:33:23;;;;;;;78.47;33.42;;;;;;;4.82;50.12;99803.34;1658772;84;27506;-62
2021/12/24 12:35:54;;;;;;;105.92;49.45;;;;;;;4.73;50.47;99806.75;1641019;86;25721;-61
2021/12/24 12:38:40;;;;;;;74.05;35.45;;;;;;;4.68;50.36;99805.78;1635745;85;25920;-61
2021/12/24 12:41:38;;;;;;;68.65;32.42;;;;;;;4.57;50.56;99811.97;1652113;85;26776;-61
2021/12/24 12:44:10;;;;;;;62.55;33.38;;;;;;;4.41;50.89;99808.33;1663851;84;25737;-61
2021/12/24 12:46:41;;;;;;;57.53;31.42;;;;;;;4.25;51.46;99802.50;1663058;84;28159;-61
2021/12/24 12:49:16;;;;;;;62.70;33.15;;;;;;;4.10;51.97;99810.73;1634057;85;25829;-61
2021/12/24 12:52:07;;;;;;;67.67;35.75;;;;;;;3.98;52.36;99809.86;1629618;85;26411;-61
2021/12/24 12:54:41;;;;;;;62.08;33.10;;;;;;;3.91;52.37;99808.14;1649949;85;26109;-62
2021/12/24 12:57:22;;;;;;;62.13;32.63;;;;;;;3.74;52.74;99814.73;1646841;86;25893;-61
2021/12/24 13:00:22;;;;;;;65.87;35.00;;;;;;;3.67;53.18;99823.31;1657673;86;27836;-62
2021/12/24 13:05:39;;;;;;;65.47;32.70;;;;;;;3.58;53.47;99825.70;1643839;86;25899;-62
2021/12/24 13:08:17;;;;;;;64.40;32.50;;;;;;;3.54;53.43;99823.38;1646284;86;26845;-62
2021/12/24 13:11:08;;;;;;;55.45;31.65;;;;;;;3.53;53.48;99818.53;1658927;85;26035;-62
2021/12/24 13:14:01;;;;;;;73.62;36.08;;;;;;;3.52;53.84;99827.46;1631825;86;27562;-61
2021/12/24 13:16:44;;;;;;;60.73;31.70;;;;;;;3.47;53.98;99830.09;1607421;88;25897;-62
2021/12/24 13:25:11;;;;;;;69.30;36.15;;;;;;;3.37;54.08;99808.17;1646682;84;25931;-62
2021/12/24 13:27:50;;;;;;;69.32;35.48;;;;;;;3.28;54.64;99816.83;1649983;84;27524;-61
2021/12/24 13:30:24;;;;;;;74.35;37.33;;;;;;;3.26;54.75;99805.48;1634326;85;26445;-61
2021/12/24 13:32:56;;;;;;;62.85;34.98;;;;;;;3.25;55.32;99813.92;1650167;86;25744;-62